createdAt,value
2018-07-24T00:30:26.147Z,21.90
2018-07-24T00:32:29.243Z,22.00
2018-07-24T00:34:32.355Z,21.80
2018-07-24T00:36:35.451Z,21.80
2018-07-24T00:38:38.539Z,21.70
2018-07-24T00:40:41.641Z,21.70
2018-07-24T00:42:44.727Z,21.70
2018-07-24T00:44:47.847Z,21.60
2018-07-24T00:46:50.939Z,21.60
2018-07-24T00:48:54.044Z,21.60
2018-07-24T00:50:57.133Z,21.60
2018-07-24T00:53:00.228Z,21.60
2018-07-24T00:55:03.324Z,21.50
2018-07-24T00:57:06.406Z,21.50
2018-07-24T00:59:10.470Z,21.50
2018-07-24T01:01:13.552Z,21.50
2018-07-24T01:03:16.678Z,21.50
2018-07-24T01:05:19.839Z,21.50
2018-07-24T01:07:22.979Z,21.50
2018-07-24T01:09:26.147Z,21.40
2018-07-24T01:11:29.403Z,21.40
2018-07-24T01:13:32.528Z,21.40
2018-07-24T01:15:35.668Z,21.30
2018-07-24T01:17:38.807Z,21.30
2018-07-24T01:19:41.973Z,21.20
2018-07-24T01:21:45.195Z,21.20
2018-07-24T01:23:48.329Z,21.20
2018-07-24T01:25:51.463Z,21.20
2018-07-24T01:27:54.583Z,21.20
2018-07-24T01:29:57.722Z,21.10
2018-07-24T01:32:00.873Z,21.10
2018-07-24T01:34:04.031Z,21.10
2018-07-24T01:36:07.320Z,21.00
2018-07-24T01:38:10.495Z,21.00
2018-07-24T01:40:13.639Z,20.90
2018-07-24T01:42:17.763Z,20.90
2018-07-24T01:44:20.884Z,20.90
2018-07-24T01:46:24.023Z,20.90
2018-07-24T01:48:27.156Z,20.80
2018-07-24T01:50:30.311Z,20.80
2018-07-24T01:52:33.447Z,20.80
2018-07-24T01:54:36.568Z,20.80
2018-07-24T01:56:39.701Z,20.70
2018-07-24T01:58:42.831Z,20.70
2018-07-24T02:00:45.988Z,20.70
2018-07-24T02:02:49.118Z,20.60
2018-07-24T02:06:55.168Z,20.60
2018-07-24T02:11:01.484Z,20.50
2018-07-24T02:17:10.926Z,20.40
2018-07-24T02:19:14.055Z,20.40
2018-07-24T02:25:23.111Z,20.30
2018-07-24T02:27:26.272Z,20.30
2018-07-24T02:29:29.399Z,20.30
2018-07-24T02:31:32.554Z,20.30
2018-07-24T02:33:35.689Z,20.30
2018-07-24T02:35:38.891Z,20.20
2018-07-24T02:37:42.160Z,20.20
2018-07-24T02:39:45.396Z,20.10
2018-07-24T02:41:48.536Z,20.10
2018-07-24T02:43:51.674Z,20.10
2018-07-24T02:45:54.828Z,20.00
2018-07-24T02:47:57.973Z,20.00
2018-07-24T02:50:01.097Z,20.00
2018-07-24T02:52:04.277Z,19.90
2018-07-24T02:54:07.409Z,20.00
2018-07-24T02:56:10.534Z,19.90
2018-07-24T02:58:13.693Z,19.80
2018-07-24T03:00:16.823Z,19.80
2018-07-24T03:02:19.976Z,19.80
2018-07-24T03:04:23.141Z,19.80
2018-07-24T03:08:29.167Z,19.70
2018-07-24T03:10:32.351Z,19.70
2018-07-24T03:12:35.672Z,19.70
2018-07-24T03:14:38.820Z,19.70
2018-07-24T03:16:41.976Z,19.70
2018-07-24T03:18:45.130Z,19.60
2018-07-24T03:20:48.352Z,19.60
2018-07-24T03:22:51.481Z,19.60
2018-07-24T03:24:54.744Z,19.60
2018-07-24T03:26:57.963Z,19.60
2018-07-24T03:29:01.112Z,19.50
2018-07-24T03:31:04.244Z,19.50
2018-07-24T03:33:07.372Z,19.50
2018-07-24T03:35:10.521Z,19.50
2018-07-24T03:37:13.667Z,19.50
2018-07-24T03:39:16.832Z,19.50
2018-07-24T03:41:19.972Z,19.50
2018-07-24T03:43:23.119Z,19.40
2018-07-24T03:45:26.307Z,19.50
2018-07-24T03:47:29.475Z,19.40
2018-07-24T03:49:32.647Z,19.40
2018-07-24T03:51:35.812Z,19.40
2018-07-24T03:53:38.964Z,19.40
2018-07-24T03:55:42.143Z,19.40
2018-07-24T03:57:45.586Z,19.40
2018-07-24T03:59:48.715Z,19.40
2018-07-24T04:01:51.870Z,19.50
2018-07-24T04:03:55.072Z,19.50
2018-07-24T04:05:58.212Z,19.50
2018-07-24T04:08:01.348Z,19.50
2018-07-24T04:10:04.511Z,19.50
2018-07-24T04:12:07.661Z,19.50
2018-07-24T04:14:10.962Z,19.50
2018-07-24T04:16:14.112Z,19.60
2018-07-24T04:18:17.331Z,19.60
2018-07-24T04:20:20.488Z,19.60
2018-07-24T04:22:23.656Z,19.70
2018-07-24T04:24:26.795Z,19.70
2018-07-24T04:26:29.940Z,19.70
2018-07-24T04:28:33.083Z,19.80
2018-07-24T04:30:36.232Z,19.80
2018-07-24T04:32:39.403Z,19.80
2018-07-24T04:34:42.637Z,19.90
2018-07-24T04:36:45.788Z,19.90
2018-07-24T04:38:48.924Z,20.00
2018-07-24T04:40:52.055Z,20.00
2018-07-24T04:42:55.231Z,20.10
2018-07-24T04:44:58.378Z,20.10
2018-07-24T04:47:01.524Z,20.20
2018-07-24T04:49:04.909Z,20.30
2018-07-24T04:51:08.539Z,20.30
2018-07-24T04:53:11.683Z,20.30
2018-07-24T04:55:14.868Z,20.40
2018-07-24T05:03:26.952Z,20.90
2018-07-24T05:05:30.068Z,21.40
2018-07-24T05:07:33.210Z,22.00
2018-07-24T05:11:39.332Z,23.60
2018-07-24T05:13:42.472Z,24.10
2018-07-24T05:15:45.613Z,24.70
2018-07-24T05:19:51.653Z,25.90
2018-07-24T05:21:54.796Z,26.40
2018-07-24T05:23:57.966Z,26.90
2018-07-24T05:26:01.073Z,27.30
2018-07-24T05:28:04.840Z,27.70
2018-07-24T05:32:11.248Z,28.70
2018-07-24T05:34:14.373Z,28.70
2018-07-24T05:46:32.424Z,30.50
2018-07-24T05:48:35.596Z,30.80
2018-07-24T05:50:38.676Z,31.00
2018-07-24T05:52:41.796Z,31.30
2018-07-24T05:54:44.922Z,31.50
2018-07-24T05:56:48.055Z,31.60
2018-07-24T05:58:51.180Z,31.80
2018-07-24T06:00:54.310Z,32.10
2018-07-24T06:02:57.462Z,32.30
2018-07-24T06:13:12.928Z,33.50
2018-07-24T06:15:16.059Z,33.50
2018-07-24T06:17:19.227Z,33.70
2018-07-24T06:19:22.332Z,33.90
2018-07-24T06:33:43.374Z,35.10
2018-07-24T06:35:46.501Z,35.00
2018-07-24T06:37:49.619Z,35.10
2018-07-24T06:39:52.753Z,35.20
2018-07-24T06:43:58.826Z,35.40
2018-07-24T06:46:01.961Z,35.50
2018-07-24T06:48:05.096Z,35.50
2018-07-24T06:50:08.255Z,35.60
2018-07-24T06:52:11.400Z,35.60
2018-07-24T06:54:14.536Z,35.60
2018-07-24T06:56:17.691Z,35.60
2018-07-24T06:58:20.836Z,35.60
2018-07-24T07:00:24.035Z,35.50
2018-07-24T07:06:33.120Z,33.90
2018-07-24T07:08:36.228Z,33.60
2018-07-24T07:10:39.355Z,33.10
2018-07-24T07:22:57.351Z,31.00
2018-07-24T07:25:00.472Z,30.90
2018-07-24T07:27:03.619Z,30.70
2018-07-24T07:29:06.777Z,30.50
2018-07-24T07:31:09.880Z,30.50
2018-07-24T07:43:27.782Z,30.30
2018-07-24T09:01:20.589Z,30.70
2018-07-24T09:05:26.632Z,30.70
2018-07-24T09:07:29.777Z,30.80
2018-07-24T09:09:32.901Z,30.80
2018-07-24T09:11:36.115Z,30.80
2018-07-24T09:13:39.188Z,30.70
2018-07-24T09:15:42.340Z,30.70
2018-07-24T09:17:45.468Z,30.80
2018-07-24T09:21:51.520Z,30.90
2018-07-24T09:23:54.644Z,31.00
2018-07-24T09:28:00.696Z,31.10
2018-07-24T09:32:06.804Z,31.20
2018-07-24T09:34:09.896Z,31.20
2018-07-24T09:36:13.136Z,31.30
2018-07-24T09:38:16.248Z,31.30
2018-07-24T09:40:19.390Z,31.20
2018-07-24T09:42:23.500Z,31.20
2018-07-24T09:44:26.642Z,31.20
2018-07-24T12:18:14.347Z,32.90
2018-07-24T12:20:17.460Z,32.80
2018-07-24T12:22:21.424Z,32.80
2018-07-24T12:24:24.532Z,32.90
2018-07-24T12:26:27.660Z,33.00
2018-07-24T12:28:30.783Z,33.10
2018-07-24T12:30:33.898Z,33.10
2018-07-24T12:32:37.076Z,33.10
2018-07-24T12:34:40.192Z,33.20
2018-07-24T12:36:43.338Z,33.20
2018-07-24T12:40:49.359Z,33.30
2018-07-24T12:42:52.523Z,33.40
2018-07-24T12:44:55.836Z,33.40
2018-07-24T12:46:58.975Z,33.40
2018-07-24T12:49:02.123Z,33.40
2018-07-24T12:51:05.251Z,33.50
2018-07-24T12:53:08.376Z,33.50
2018-07-24T12:55:11.532Z,33.60
2018-07-24T12:57:14.653Z,33.60
2018-07-24T12:59:17.776Z,33.60
2018-07-24T13:03:24.437Z,33.60
2018-07-24T13:05:27.553Z,33.50
2018-07-24T13:07:30.774Z,33.50
2018-07-24T13:09:33.856Z,33.50
2018-07-24T13:11:37.024Z,33.60
2018-07-24T13:13:40.168Z,33.70
2018-07-24T13:15:43.279Z,33.80
2018-07-24T13:17:46.441Z,33.70
2018-07-24T13:19:49.572Z,33.80
2018-07-24T13:21:52.727Z,33.90
2018-07-24T13:25:58.788Z,33.90
2018-07-24T13:28:01.927Z,34.00
2018-07-24T13:30:05.084Z,34.00
2018-07-24T13:32:08.285Z,34.10
2018-07-24T13:34:11.356Z,34.10
2018-07-24T13:36:14.494Z,34.10
2018-07-24T13:38:17.631Z,34.10
2018-07-24T13:40:21.060Z,34.20
2018-07-24T13:42:24.187Z,34.20
2018-07-24T13:46:30.232Z,34.20
2018-07-24T13:48:33.488Z,34.10
2018-07-24T13:50:36.625Z,34.10
2018-07-24T13:52:39.757Z,34.00
2018-07-24T13:54:42.901Z,34.10
2018-07-24T13:58:49.020Z,34.00
2018-07-24T14:02:55.043Z,33.90
2018-07-24T14:07:01.105Z,33.90
2018-07-24T14:09:07.080Z,33.90
2018-07-24T14:11:10.203Z,33.90
2018-07-24T14:13:13.316Z,34.00
2018-07-24T14:15:16.441Z,34.00
2018-07-24T14:17:19.560Z,34.00
2018-07-24T14:19:22.684Z,34.00
2018-07-24T14:23:28.748Z,34.20
2018-07-24T14:27:34.827Z,34.30
2018-07-24T14:29:37.967Z,34.40
2018-07-24T14:31:41.093Z,34.40
2018-07-24T14:33:44.207Z,34.50
2018-07-24T14:35:47.332Z,34.50
2018-07-24T14:37:50.592Z,34.50
2018-07-24T14:39:53.710Z,34.50
2018-07-24T14:41:56.836Z,34.30
2018-07-24T14:43:59.986Z,34.30
2018-07-24T14:46:03.220Z,34.30
2018-07-24T14:48:06.327Z,34.40
2018-07-24T14:50:09.532Z,34.50
2018-07-24T14:52:12.648Z,34.60
2018-07-24T14:56:18.717Z,34.80
2018-07-24T15:00:24.784Z,34.60
2018-07-24T15:04:30.803Z,34.60
2018-07-24T15:06:34.015Z,34.40
2018-07-24T15:08:37.084Z,34.30
2018-07-24T15:12:44.147Z,34.30
2018-07-24T15:14:47.283Z,34.40
2018-07-24T15:16:50.447Z,34.50
2018-07-24T15:18:53.580Z,34.50
2018-07-24T15:20:56.735Z,34.60
2018-07-24T15:22:59.888Z,34.50
2018-07-24T15:25:03.044Z,34.50
2018-07-24T15:27:06.175Z,34.50
2018-07-24T15:29:09.452Z,34.50
2018-07-24T15:31:12.624Z,34.50
2018-07-24T15:33:15.764Z,34.30
2018-07-24T15:35:18.916Z,34.30
2018-07-24T15:37:22.059Z,34.30
2018-07-24T15:39:25.184Z,34.30
2018-07-24T15:41:28.562Z,34.30
2018-07-24T15:43:31.663Z,34.20
2018-07-24T15:45:34.816Z,34.20
2018-07-24T15:47:37.960Z,34.30
2018-07-24T15:49:41.104Z,34.40
2018-07-24T15:51:44.263Z,34.50
2018-07-24T15:53:47.497Z,34.50
2018-07-24T15:55:50.668Z,34.60
2018-07-24T15:57:53.862Z,34.60
2018-07-24T15:59:57.043Z,34.70
2018-07-24T16:02:00.329Z,34.80
2018-07-24T16:04:09.863Z,34.80
2018-07-24T16:06:13.163Z,34.80
2018-07-24T16:08:16.524Z,34.80
2018-07-24T16:10:19.644Z,34.90
2018-07-24T16:12:22.783Z,34.90
2018-07-24T16:36:59.175Z,35.10
2018-07-24T16:39:02.345Z,35.10
2018-07-24T16:41:05.472Z,35.00
2018-07-24T16:43:08.619Z,34.90
2018-07-24T16:45:11.760Z,34.80
2018-07-24T16:47:14.903Z,34.80
2018-07-24T16:49:18.075Z,34.60
2018-07-24T16:51:21.207Z,34.60
2018-07-24T16:53:24.343Z,34.60
2018-07-24T16:55:27.468Z,34.60
2018-07-24T16:57:30.611Z,34.50
2018-07-24T16:59:33.784Z,34.40
2018-07-24T17:01:36.903Z,34.40
2018-07-24T17:03:40.024Z,34.40
2018-07-24T17:05:43.501Z,34.20
2018-07-24T17:07:46.619Z,34.30
2018-07-24T17:09:49.739Z,34.20
2018-07-24T17:11:52.899Z,34.30
2018-07-24T17:13:56.051Z,34.40
2018-07-24T17:15:59.155Z,34.50
2018-07-24T17:18:02.459Z,34.50
2018-07-24T17:20:05.608Z,34.60
2018-07-24T17:22:08.746Z,34.60
2018-07-24T17:24:11.869Z,34.60
2018-07-24T17:26:15.070Z,34.60
2018-07-24T17:28:18.101Z,34.60
2018-07-24T17:30:21.237Z,34.60
2018-07-24T17:32:24.420Z,34.60
2018-07-24T17:34:27.535Z,34.60
2018-07-24T17:36:30.659Z,34.50
2018-07-24T17:38:33.787Z,34.50
2018-07-24T17:40:36.974Z,34.50
2018-07-24T17:42:40.044Z,34.40
2018-07-24T17:44:43.159Z,34.30
2018-07-24T17:46:46.303Z,34.20
2018-07-24T17:50:52.369Z,34.20
2018-07-24T17:52:55.461Z,34.20
2018-07-24T17:57:01.536Z,34.10
2018-07-24T18:01:07.645Z,34.80
2018-07-24T18:03:10.716Z,34.70
2018-07-24T18:05:13.866Z,34.90
2018-07-24T18:07:16.985Z,35.10
2018-07-24T18:09:20.107Z,35.00
2018-07-24T18:11:23.267Z,34.80
2018-07-24T18:13:26.376Z,35.40
2018-07-24T18:25:44.119Z,38.60
2018-07-24T18:27:47.257Z,38.20
2018-07-24T18:29:50.355Z,38.00
2018-07-24T18:33:56.436Z,38.80
2018-07-24T18:38:02.512Z,39.30
2018-07-24T18:40:05.694Z,39.40
2018-07-24T18:42:08.828Z,39.40
2018-07-24T18:44:11.950Z,39.50
2018-07-24T18:56:30.351Z,36.20
2018-07-24T19:00:36.411Z,35.20
2018-07-24T19:02:39.675Z,34.60
2018-07-24T19:04:42.797Z,34.20
2018-07-24T19:06:45.940Z,33.70
2018-07-24T19:08:49.052Z,33.50
2018-07-24T19:12:55.167Z,32.70
2018-07-24T19:14:58.295Z,32.70
2018-07-24T19:17:01.428Z,32.50
2018-07-24T19:19:04.555Z,32.30
2018-07-24T19:21:07.898Z,32.10
2018-07-24T19:25:13.989Z,31.70
2018-07-24T19:27:18.010Z,31.50
2018-07-24T19:29:21.148Z,31.40
2018-07-24T19:31:24.263Z,31.20
2018-07-24T19:33:27.684Z,31.00
2018-07-24T19:35:30.854Z,30.90
2018-07-24T19:37:34.020Z,30.80
2018-07-24T19:39:37.180Z,30.70
2018-07-24T19:41:40.341Z,30.50
2018-07-24T19:43:43.502Z,30.40
2018-07-24T19:45:46.632Z,30.30
2018-07-24T19:47:49.772Z,30.20
2018-07-24T19:49:52.973Z,30.00
2018-07-24T19:51:56.044Z,30.00
2018-07-24T19:53:59.448Z,29.90
2018-07-24T19:56:02.630Z,29.80
2018-07-24T19:58:05.903Z,29.70
2018-07-24T20:00:09.727Z,29.60
2018-07-24T20:02:12.843Z,29.50
2018-07-24T20:04:16.004Z,29.40
2018-07-24T20:06:19.145Z,29.30
2018-07-24T20:08:22.397Z,29.20
2018-07-24T20:10:25.594Z,29.10
2018-07-24T20:12:28.773Z,29.10
2018-07-24T20:14:32.077Z,29.00
2018-07-24T20:16:35.279Z,28.90
2018-07-24T20:18:39.313Z,28.80
2018-07-24T20:20:42.496Z,28.70
2018-07-24T20:22:46.955Z,28.70
2018-07-24T20:24:50.024Z,28.60
2018-07-24T20:26:53.177Z,28.50
2018-07-24T20:28:56.331Z,28.50
2018-07-24T20:30:59.492Z,28.40
2018-07-24T20:33:02.636Z,28.40
2018-07-24T20:35:06.818Z,28.30
2018-07-24T20:37:09.938Z,28.10
2018-07-24T20:39:13.592Z,28.10
2018-07-24T20:41:16.772Z,28.00
2018-07-24T20:43:19.958Z,28.00
2018-07-24T20:45:23.100Z,28.00
2018-07-24T20:47:26.267Z,28.00
2018-07-24T20:49:29.419Z,27.90
2018-07-24T20:51:32.560Z,27.90
2018-07-24T20:53:35.984Z,27.90
2018-07-24T20:55:39.144Z,27.80
2018-07-24T20:57:42.279Z,27.80
2018-07-24T20:59:45.437Z,27.70
2018-07-24T21:01:48.563Z,27.70
2018-07-24T21:03:51.727Z,27.60
2018-07-24T21:05:54.911Z,27.60
2018-07-24T21:07:58.012Z,27.60
2018-07-24T21:10:01.172Z,27.50
2018-07-24T21:12:04.315Z,27.50
2018-07-24T21:14:08.344Z,27.40
2018-07-24T21:16:11.481Z,27.30
2018-07-24T21:18:14.611Z,27.30
2018-07-24T21:20:17.748Z,27.20
2018-07-24T21:22:20.883Z,27.20
2018-07-24T21:24:24.041Z,27.10
2018-07-24T21:26:27.172Z,27.10
2018-07-24T21:28:30.315Z,27.00
2018-07-24T21:30:33.470Z,27.00
2018-07-24T21:32:36.628Z,27.00
2018-07-24T21:34:39.774Z,26.90
2018-07-24T21:36:43.049Z,26.90
2018-07-24T21:38:46.223Z,26.90
2018-07-24T21:40:49.384Z,26.90
2018-07-24T21:42:52.600Z,26.80
2018-07-24T21:44:55.711Z,26.80
2018-07-24T21:46:58.852Z,26.80
2018-07-24T21:49:02.122Z,26.70
2018-07-24T21:51:05.388Z,26.70
2018-07-24T21:53:08.791Z,26.70
2018-07-24T21:55:11.924Z,26.70
2018-07-24T21:57:15.060Z,26.70
2018-07-24T21:59:18.206Z,26.70
2018-07-24T22:01:24.004Z,26.80
2018-07-24T22:03:27.167Z,26.80
2018-07-24T22:05:30.578Z,26.80
2018-07-24T22:07:34.173Z,26.80
2018-07-24T22:09:37.456Z,26.90
2018-07-24T22:11:40.583Z,26.90
2018-07-24T22:13:43.689Z,26.90
2018-07-24T22:15:46.824Z,26.90
2018-07-24T22:17:50.133Z,26.90
2018-07-24T22:19:53.246Z,26.90
2018-07-24T22:21:56.368Z,26.90
2018-07-24T22:23:59.508Z,26.90
2018-07-24T22:26:02.628Z,26.80
2018-07-24T22:28:05.774Z,26.80
2018-07-24T22:30:09.427Z,26.80
2018-07-24T22:32:12.615Z,26.70
2018-07-24T22:34:15.749Z,26.70
2018-07-24T22:36:18.878Z,26.70
2018-07-24T22:38:22.191Z,26.60
2018-07-24T22:40:25.316Z,26.50
2018-07-24T22:42:28.569Z,26.40
2018-07-24T22:44:31.683Z,26.40
2018-07-24T22:46:36.109Z,26.30
2018-07-24T22:48:39.198Z,26.30
2018-07-24T22:50:43.300Z,26.40
2018-07-24T22:52:46.432Z,26.30
2018-07-24T22:54:49.539Z,26.30
2018-07-24T22:56:52.731Z,26.30
2018-07-24T22:58:55.783Z,26.20
2018-07-24T23:00:58.903Z,26.20
2018-07-24T23:05:05.056Z,26.20
2018-07-24T23:07:08.207Z,26.20
2018-07-24T23:09:11.519Z,26.20
2018-07-24T23:11:14.663Z,26.10
2018-07-24T23:13:17.789Z,26.00
2018-07-24T23:15:21.047Z,26.00
2018-07-24T23:17:24.124Z,26.00
2018-07-24T23:19:27.371Z,26.00
2018-07-24T23:21:30.499Z,26.00
2018-07-24T23:23:33.615Z,26.00
2018-07-24T23:25:36.732Z,26.00
2018-07-24T23:27:39.863Z,25.90
2018-07-24T23:29:42.993Z,25.90
2018-07-24T23:31:46.132Z,25.90
2018-07-24T23:33:49.250Z,26.00
2018-07-24T23:35:52.387Z,25.90
2018-07-24T23:50:03.688Z,25.80
2018-07-24T23:52:06.979Z,25.80
2018-07-24T23:54:10.084Z,25.80
2018-07-24T23:56:13.179Z,25.80
2018-07-24T23:58:16.274Z,25.80
